createdAt,value
2018-12-27T00:00:26.103Z,16.90
2018-12-27T00:02:56.104Z,17.00
2018-12-27T00:05:26.087Z,16.90
2018-12-27T00:07:56.163Z,16.90
2018-12-27T00:10:26.208Z,16.90
2018-12-27T00:12:56.291Z,16.90
2018-12-27T00:15:26.341Z,16.90
2018-12-27T00:17:56.431Z,16.90
2018-12-27T00:20:26.496Z,16.90
2018-12-27T00:22:56.544Z,16.90
2018-12-27T00:25:26.518Z,16.90
2018-12-27T00:27:56.603Z,16.90
2018-12-27T00:30:26.747Z,16.90
2018-12-27T00:33:03.162Z,16.90
2018-12-27T00:35:28.695Z,16.90
2018-12-27T00:37:58.821Z,16.90
2018-12-27T00:40:28.964Z,16.90
2018-12-27T00:43:00.018Z,16.90
2018-12-27T00:45:30.307Z,16.90
2018-12-27T00:48:00.458Z,16.90
2018-12-27T00:50:30.584Z,16.90
2018-12-27T00:53:00.862Z,16.90
2018-12-27T00:55:30.995Z,16.90
2018-12-27T00:58:01.183Z,16.90
2018-12-27T01:00:31.451Z,16.90
2018-12-27T01:03:01.606Z,16.90
2018-12-27T01:05:31.812Z,16.90
2018-12-27T01:08:01.966Z,16.90
2018-12-27T01:10:32.153Z,16.90
2018-12-27T01:13:02.330Z,16.90
2018-12-27T01:15:32.450Z,16.90
2018-12-27T01:18:02.607Z,16.90
2018-12-27T01:20:32.749Z,16.90
2018-12-27T01:23:02.997Z,16.90
2018-12-27T01:25:33.193Z,16.90
2018-12-27T01:28:03.323Z,16.80
2018-12-27T01:30:33.421Z,16.80
2018-12-27T01:33:03.587Z,16.80
2018-12-27T01:35:33.735Z,16.80
2018-12-27T01:38:03.905Z,16.80
2018-12-27T01:40:34.058Z,16.80
2018-12-27T01:43:04.222Z,16.80
2018-12-27T01:45:34.424Z,16.80
2018-12-27T01:48:04.570Z,16.80
2018-12-27T01:50:34.666Z,16.80
2018-12-27T01:53:04.827Z,16.80
2018-12-27T01:55:34.958Z,16.80
2018-12-27T01:58:05.133Z,16.80
2018-12-27T02:00:35.300Z,16.80
2018-12-27T02:03:05.397Z,16.80
2018-12-27T02:05:35.532Z,16.80
2018-12-27T02:08:05.650Z,16.80
2018-12-27T02:10:35.823Z,16.80
2018-12-27T02:13:06.035Z,16.80
2018-12-27T02:15:36.223Z,16.80
2018-12-27T02:18:06.387Z,16.80
2018-12-27T02:20:36.571Z,16.80
2018-12-27T02:23:06.689Z,16.80
2018-12-27T02:25:36.853Z,16.80
2018-12-27T02:28:06.953Z,16.80
2018-12-27T02:30:37.138Z,16.80
2018-12-27T02:33:07.231Z,16.80
2018-12-27T02:35:37.392Z,16.80
2018-12-27T02:38:07.540Z,16.80
2018-12-27T02:40:37.715Z,16.80
2018-12-27T02:43:07.800Z,16.80
2018-12-27T02:45:38.056Z,16.70
2018-12-27T02:48:08.220Z,16.80
2018-12-27T02:50:38.387Z,16.80
2018-12-27T02:53:08.558Z,16.80
2018-12-27T02:55:38.694Z,16.80
2018-12-27T02:58:08.908Z,16.80
2018-12-27T03:00:39.068Z,16.70
2018-12-27T03:03:09.257Z,16.70
2018-12-27T03:05:39.380Z,16.70
2018-12-27T03:08:09.578Z,16.70
2018-12-27T03:10:39.748Z,16.70
2018-12-27T03:13:09.844Z,16.70
2018-12-27T03:15:40.077Z,16.70
2018-12-27T03:18:10.280Z,16.70
2018-12-27T03:20:40.536Z,16.70
2018-12-27T03:23:10.723Z,16.70
2018-12-27T03:25:41.074Z,16.70
2018-12-27T03:28:11.244Z,16.70
2018-12-27T03:30:41.373Z,16.70
2018-12-27T03:33:11.604Z,16.70
2018-12-27T03:35:41.806Z,16.70
2018-12-27T03:38:12.011Z,16.70
2018-12-27T03:40:42.232Z,16.70
2018-12-27T03:43:12.367Z,16.70
2018-12-27T03:45:42.507Z,16.70
2018-12-27T03:48:12.659Z,16.70
2018-12-27T03:50:42.757Z,16.70
2018-12-27T03:53:12.887Z,16.70
2018-12-27T03:55:42.998Z,16.70
2018-12-27T03:58:13.175Z,16.70
2018-12-27T04:00:43.419Z,16.70
2018-12-27T04:03:13.559Z,16.70
2018-12-27T04:05:43.689Z,16.70
2018-12-27T04:08:13.914Z,16.70
2018-12-27T04:10:44.088Z,16.70
2018-12-27T04:13:14.791Z,16.70
2018-12-27T04:15:44.869Z,16.70
2018-12-27T04:18:14.927Z,16.70
2018-12-27T04:20:44.919Z,16.60
2018-12-27T04:23:15.191Z,16.70
2018-12-27T04:25:45.440Z,16.60
2018-12-27T04:28:15.415Z,16.60
2018-12-27T04:30:45.988Z,16.60
2018-12-27T04:33:18.420Z,16.60
2018-12-27T04:35:50.918Z,16.60
2018-12-27T04:38:20.912Z,16.60
2018-12-27T04:40:50.962Z,16.60
2018-12-27T04:43:22.067Z,16.60
2018-12-27T04:45:52.111Z,16.60
2018-12-27T04:48:22.119Z,16.60
2018-12-27T04:50:52.451Z,16.60
2018-12-27T04:53:22.511Z,16.60
2018-12-27T04:55:52.710Z,16.60
2018-12-27T04:58:22.768Z,16.60
2018-12-27T05:00:52.842Z,16.50
2018-12-27T05:03:22.817Z,16.50
2018-12-27T05:05:52.987Z,16.50
2018-12-27T05:08:23.040Z,16.50
2018-12-27T05:10:53.479Z,16.50
2018-12-27T05:13:23.485Z,16.50
2018-12-27T05:15:53.582Z,16.50
2018-12-27T05:18:23.705Z,16.50
2018-12-27T05:20:53.788Z,16.50
2018-12-27T05:23:23.868Z,16.50
2018-12-27T05:25:53.783Z,16.50
2018-12-27T05:28:24.000Z,16.40
2018-12-27T05:30:54.144Z,16.40
2018-12-27T05:33:24.319Z,16.40
2018-12-27T05:35:54.396Z,16.40
2018-12-27T05:38:24.423Z,16.40
2018-12-27T05:40:54.446Z,16.40
2018-12-27T05:43:24.391Z,16.30
2018-12-27T05:45:54.392Z,16.30
2018-12-27T05:48:24.345Z,16.30
2018-12-27T05:50:54.708Z,16.30
2018-12-27T05:53:24.819Z,16.30
2018-12-27T05:55:54.886Z,16.30
2018-12-27T05:58:25.045Z,16.30
2018-12-27T06:00:55.019Z,16.20
2018-12-27T06:03:24.982Z,16.20
2018-12-27T06:05:55.000Z,16.20
2018-12-27T06:08:24.936Z,16.20
2018-12-27T06:10:54.978Z,16.20
2018-12-27T06:13:24.951Z,16.20
2018-12-27T06:15:55.023Z,16.20
2018-12-27T06:18:25.010Z,16.20
2018-12-27T06:21:01.139Z,16.10
2018-12-27T06:23:31.170Z,16.10
2018-12-27T06:26:01.432Z,16.10
2018-12-27T06:28:31.605Z,16.10
2018-12-27T06:31:01.672Z,16.10
2018-12-27T06:33:31.847Z,16.10
2018-12-27T06:36:01.991Z,16.10
2018-12-27T06:38:32.161Z,16.10
2018-12-27T06:41:02.164Z,16.10
2018-12-27T06:43:32.214Z,16.10
2018-12-27T06:46:02.232Z,16.10
2018-12-27T06:48:32.195Z,16.10
2018-12-27T06:51:02.314Z,16.10
2018-12-27T06:53:32.348Z,16.10
2018-12-27T06:56:02.360Z,16.10
2018-12-27T06:58:37.841Z,16.00
2018-12-27T07:01:07.397Z,16.00
2018-12-27T07:03:37.470Z,16.00
2018-12-27T07:06:07.550Z,16.00
2018-12-27T07:08:38.943Z,16.00
2018-12-27T07:11:09.094Z,16.00
2018-12-27T07:13:39.164Z,16.00
2018-12-27T07:16:10.825Z,15.90
2018-12-27T07:18:40.960Z,15.90
2018-12-27T07:21:11.126Z,15.90
2018-12-27T07:23:41.686Z,15.90
2018-12-27T07:26:11.684Z,15.90
2018-12-27T07:28:42.280Z,15.80
2018-12-27T07:31:12.325Z,15.80
2018-12-27T07:33:42.374Z,15.90
2018-12-27T07:36:12.372Z,15.80
2018-12-27T07:38:42.334Z,15.80
2018-12-27T07:41:12.472Z,15.80
2018-12-27T07:43:42.393Z,15.80
2018-12-27T07:46:12.322Z,15.80
2018-12-27T07:48:42.296Z,15.80
2018-12-27T07:51:12.808Z,15.80
2018-12-27T07:53:42.859Z,15.80
2018-12-27T07:56:12.927Z,15.80
2018-12-27T07:58:44.078Z,15.80
2018-12-27T08:01:14.084Z,15.80
2018-12-27T08:03:44.295Z,15.80
2018-12-27T08:06:15.286Z,15.80
2018-12-27T08:08:45.594Z,15.80
2018-12-27T08:11:15.707Z,15.80
2018-12-27T08:13:45.788Z,15.80
2018-12-27T08:16:19.448Z,15.80
2018-12-27T08:18:49.504Z,15.80
2018-12-27T08:21:19.625Z,15.80
2018-12-27T08:23:49.697Z,15.80
2018-12-27T08:26:19.798Z,15.90
2018-12-27T08:28:49.816Z,15.90
2018-12-27T08:31:19.824Z,16.00
2018-12-27T08:33:49.945Z,16.00
2018-12-27T08:36:19.980Z,16.10
2018-12-27T08:38:50.022Z,16.10
2018-12-27T08:41:20.195Z,16.20
2018-12-27T08:43:50.252Z,16.20
2018-12-27T08:46:20.230Z,16.30
2018-12-27T08:48:50.204Z,16.30
2018-12-27T08:51:20.286Z,16.40
2018-12-27T08:53:50.261Z,16.40
2018-12-27T08:56:20.199Z,16.40
2018-12-27T08:58:50.184Z,16.50
2018-12-27T09:01:20.241Z,16.50
2018-12-27T09:03:50.229Z,16.50
2018-12-27T09:06:20.212Z,16.60
2018-12-27T09:08:50.236Z,16.60
2018-12-27T09:11:20.257Z,16.70
2018-12-27T09:13:50.260Z,16.70
2018-12-27T09:16:20.743Z,16.70
2018-12-27T09:18:50.833Z,16.80
2018-12-27T09:21:20.889Z,16.80
2018-12-27T09:23:50.905Z,16.90
2018-12-27T09:26:20.880Z,16.90
2018-12-27T09:28:50.870Z,16.90
2018-12-27T09:31:20.947Z,17.00
2018-12-27T09:33:50.964Z,17.00
2018-12-27T09:36:20.979Z,17.00
2018-12-27T09:38:51.102Z,17.00
2018-12-27T09:41:21.232Z,17.10
2018-12-27T09:43:51.222Z,17.10
2018-12-27T09:46:21.188Z,17.10
2018-12-27T09:48:51.258Z,17.10
2018-12-27T09:51:21.246Z,17.10
2018-12-27T09:53:51.303Z,17.10
2018-12-27T09:56:21.357Z,17.10
2018-12-27T09:58:51.336Z,17.20
2018-12-27T10:01:21.315Z,17.20
2018-12-27T10:03:51.339Z,17.20
2018-12-27T10:06:21.401Z,17.20
2018-12-27T10:08:51.416Z,17.20
2018-12-27T10:11:21.414Z,17.20
2018-12-27T10:13:51.436Z,17.20
2018-12-27T10:16:21.437Z,17.30
2018-12-27T10:18:51.439Z,17.30
2018-12-27T10:21:21.417Z,17.40
2018-12-27T10:23:51.852Z,17.40
2018-12-27T10:26:21.864Z,17.40
2018-12-27T10:28:51.959Z,17.40
2018-12-27T10:31:22.032Z,17.50
2018-12-27T10:33:56.866Z,17.50
2018-12-27T10:36:24.559Z,17.50
2018-12-27T10:38:57.716Z,17.50
2018-12-27T10:41:27.731Z,17.60
2018-12-27T10:43:58.036Z,17.60
2018-12-27T10:46:28.060Z,17.60
2018-12-27T10:48:58.119Z,17.60
2018-12-27T10:51:28.296Z,17.60
2018-12-27T10:53:58.299Z,17.60
2018-12-27T10:56:28.572Z,17.60
2018-12-27T10:58:58.743Z,17.70
2018-12-27T11:01:28.772Z,17.70
2018-12-27T11:03:58.734Z,17.80
2018-12-27T11:06:28.883Z,17.80
2018-12-27T11:08:58.919Z,17.80
2018-12-27T11:11:28.928Z,17.90
2018-12-27T11:13:58.871Z,17.90
2018-12-27T11:16:29.080Z,17.90
2018-12-27T11:18:59.129Z,17.90
2018-12-27T11:21:29.212Z,17.90
2018-12-27T11:23:59.490Z,18.00
2018-12-27T11:26:29.501Z,18.00
2018-12-27T11:28:59.520Z,18.00
2018-12-27T11:31:29.784Z,18.00
2018-12-27T11:33:59.881Z,18.00
2018-12-27T11:36:30.091Z,18.00
2018-12-27T11:39:00.155Z,18.00
2018-12-27T11:41:30.191Z,18.00
2018-12-27T11:44:00.259Z,18.00
2018-12-27T11:46:30.229Z,18.10
2018-12-27T11:49:00.203Z,17.90
2018-12-27T11:51:30.156Z,18.00
2018-12-27T11:54:00.159Z,18.00
2018-12-27T11:56:30.212Z,18.00
2018-12-27T11:59:00.223Z,18.00
2018-12-27T12:01:30.228Z,18.00
2018-12-27T12:04:00.269Z,18.00
2018-12-27T12:06:30.259Z,18.00
2018-12-27T12:09:00.343Z,18.00
2018-12-27T12:11:30.301Z,18.00
2018-12-27T12:14:00.322Z,18.00
2018-12-27T12:16:30.333Z,18.00
2018-12-27T12:19:00.443Z,18.00
2018-12-27T12:21:30.468Z,18.00
2018-12-27T12:24:00.531Z,18.00
2018-12-27T12:26:30.474Z,18.10
2018-12-27T12:29:00.459Z,18.20
2018-12-27T12:31:30.524Z,18.20
2018-12-27T12:34:00.827Z,18.20
2018-12-27T12:36:31.107Z,18.20
2018-12-27T12:39:01.171Z,18.10
2018-12-27T12:41:31.528Z,18.20
2018-12-27T12:44:01.680Z,18.20
2018-12-27T12:46:31.775Z,18.10
2018-12-27T12:49:01.744Z,18.10
2018-12-27T12:51:32.103Z,18.10
2018-12-27T12:54:02.193Z,18.10
2018-12-27T12:56:32.143Z,18.10
2018-12-27T12:59:02.196Z,18.10
2018-12-27T13:01:32.170Z,18.10
2018-12-27T13:04:02.217Z,18.10
2018-12-27T13:06:32.305Z,18.10
2018-12-27T13:09:02.444Z,18.10
2018-12-27T13:11:32.488Z,18.20
2018-12-27T13:14:02.570Z,18.20
2018-12-27T13:16:32.661Z,18.20
2018-12-27T13:19:02.704Z,18.20
2018-12-27T13:21:32.733Z,18.20
2018-12-27T13:24:02.709Z,18.30
2018-12-27T13:26:32.885Z,18.30
2018-12-27T13:29:02.876Z,18.30
2018-12-27T13:31:32.954Z,18.30
2018-12-27T13:34:03.047Z,18.20
2018-12-27T13:36:33.182Z,18.30
2018-12-27T13:39:03.179Z,18.20
2018-12-27T13:41:41.724Z,18.20
2018-12-27T13:44:11.699Z,18.30
2018-12-27T13:46:41.803Z,18.20
2018-12-27T13:49:11.806Z,18.30
2018-12-27T13:51:41.829Z,18.30
2018-12-27T13:54:11.819Z,18.20
2018-12-27T13:56:41.814Z,18.30
2018-12-27T13:59:11.855Z,18.20
2018-12-27T14:01:41.844Z,18.20
2018-12-27T14:04:11.816Z,18.20
2018-12-27T14:06:41.878Z,18.20
2018-12-27T14:09:11.940Z,18.20
2018-12-27T14:11:41.923Z,18.20
2018-12-27T14:14:11.971Z,18.20
2018-12-27T14:16:42.252Z,18.20
2018-12-27T14:19:12.228Z,18.10
2018-12-27T14:21:42.231Z,18.10
2018-12-27T14:24:12.203Z,18.10
2018-12-27T14:26:43.351Z,18.10
2018-12-27T14:29:13.307Z,18.00
2018-12-27T14:31:43.365Z,18.00
2018-12-27T14:34:13.328Z,18.00
2018-12-27T14:36:43.421Z,18.00
2018-12-27T14:39:13.576Z,17.90
2018-12-27T14:41:43.633Z,17.90
2018-12-27T14:44:18.533Z,17.90
2018-12-27T14:46:52.847Z,17.90
2018-12-27T14:49:22.961Z,17.90
2018-12-27T14:51:52.960Z,17.80
2018-12-27T14:54:23.063Z,17.80
2018-12-27T14:56:53.072Z,17.80
2018-12-27T14:59:23.120Z,17.80
2018-12-27T15:01:53.226Z,17.70
2018-12-27T15:04:23.277Z,17.80
2018-12-27T15:06:53.254Z,17.70
2018-12-27T15:09:23.227Z,17.70
2018-12-27T15:11:53.285Z,17.70
2018-12-27T15:14:23.218Z,17.70
2018-12-27T15:16:53.305Z,17.70
2018-12-27T15:19:23.474Z,17.70
2018-12-27T15:21:53.480Z,17.60
2018-12-27T15:24:23.504Z,17.60
2018-12-27T15:26:53.663Z,17.60
2018-12-27T15:29:23.724Z,17.60
2018-12-27T15:31:53.765Z,17.60
2018-12-27T15:34:23.833Z,17.50
2018-12-27T15:36:54.555Z,17.60
2018-12-27T15:39:24.664Z,17.60
2018-12-27T15:41:54.659Z,17.60
2018-12-27T15:44:24.697Z,17.60
2018-12-27T15:46:54.769Z,17.50
2018-12-27T15:49:24.861Z,17.60
2018-12-27T15:51:54.817Z,17.60
2018-12-27T15:54:25.111Z,17.60
2018-12-27T15:56:55.139Z,17.60
2018-12-27T15:59:25.252Z,17.60
2018-12-27T16:01:55.403Z,17.60
2018-12-27T16:04:25.413Z,17.60
2018-12-27T16:07:01.477Z,17.60
2018-12-27T16:09:27.076Z,17.60
2018-12-27T16:11:57.083Z,17.50
2018-12-27T16:14:27.171Z,17.50
2018-12-27T16:16:57.104Z,17.50
2018-12-27T16:19:27.152Z,17.50
2018-12-27T16:21:57.147Z,17.50
2018-12-27T16:24:27.348Z,17.50
2018-12-27T16:26:57.294Z,17.40
2018-12-27T16:29:27.267Z,17.50
2018-12-27T16:31:57.290Z,17.50
2018-12-27T16:34:27.298Z,17.40
2018-12-27T16:36:57.362Z,17.40
2018-12-27T16:39:27.590Z,17.40
2018-12-27T16:41:57.803Z,17.40
2018-12-27T16:44:27.817Z,17.40
2018-12-27T16:46:57.837Z,17.30
2018-12-27T16:49:27.917Z,17.30
2018-12-27T16:51:58.079Z,17.30
2018-12-27T16:54:28.053Z,17.30
2018-12-27T16:56:58.109Z,17.30
2018-12-27T16:59:28.080Z,17.20
2018-12-27T17:01:58.031Z,17.20
2018-12-27T17:04:28.043Z,17.20
2018-12-27T17:06:58.017Z,17.20
2018-12-27T17:09:28.020Z,17.20
2018-12-27T17:11:57.964Z,17.20
2018-12-27T17:14:27.974Z,17.20
2018-12-27T17:16:58.032Z,17.20
2018-12-27T17:19:28.105Z,17.20
2018-12-27T17:21:58.060Z,17.20
2018-12-27T17:24:28.164Z,17.20
2018-12-27T17:26:58.207Z,17.20
2018-12-27T17:29:28.234Z,17.20
2018-12-27T17:31:58.311Z,17.20
2018-12-27T17:34:28.353Z,17.10
2018-12-27T17:36:58.440Z,17.10
2018-12-27T17:39:28.513Z,17.10
2018-12-27T17:41:58.504Z,17.10
2018-12-27T17:44:28.798Z,17.10
2018-12-27T17:46:58.798Z,17.10
2018-12-27T17:49:28.859Z,17.00
2018-12-27T17:51:58.901Z,17.00
2018-12-27T17:54:28.904Z,17.00
2018-12-27T17:56:58.986Z,17.00
2018-12-27T17:59:29.050Z,16.90
2018-12-27T18:01:59.050Z,17.00
2018-12-27T18:04:29.288Z,17.00
2018-12-27T18:06:59.371Z,17.00
2018-12-27T18:09:30.758Z,17.00
2018-12-27T18:12:00.770Z,17.00
2018-12-27T18:14:30.783Z,16.90
2018-12-27T18:17:00.771Z,17.00
2018-12-27T18:19:30.814Z,17.00
2018-12-27T18:22:00.906Z,17.00
2018-12-27T18:24:30.950Z,17.00
2018-12-27T18:27:01.026Z,17.00
2018-12-27T18:29:31.188Z,17.00
2018-12-27T18:32:01.195Z,17.00
2018-12-27T18:34:31.287Z,17.00
2018-12-27T18:37:01.346Z,17.00
2018-12-27T18:39:31.352Z,17.00
2018-12-27T18:42:01.402Z,17.00
2018-12-27T18:44:31.395Z,17.00
2018-12-27T18:47:01.414Z,17.00
2018-12-27T18:49:31.429Z,17.00
2018-12-27T18:52:01.391Z,17.10
2018-12-27T18:54:31.424Z,17.00
2018-12-27T18:57:01.431Z,17.10
2018-12-27T18:59:31.496Z,17.00
2018-12-27T19:02:01.550Z,17.10
2018-12-27T19:04:32.012Z,17.00
2018-12-27T19:07:02.224Z,17.10
2018-12-27T19:09:32.200Z,17.10
2018-12-27T19:12:37.706Z,17.10
2018-12-27T19:15:11.214Z,17.10
2018-12-27T19:18:01.458Z,17.10
2018-12-27T19:20:31.400Z,17.10
2018-12-27T19:23:07.398Z,17.00
2018-12-27T19:25:37.611Z,17.10
2018-12-27T19:28:07.595Z,17.10
2018-12-27T19:30:37.682Z,17.10
2018-12-27T19:33:07.757Z,17.10
2018-12-27T19:35:37.807Z,17.10
2018-12-27T19:38:07.791Z,17.10
2018-12-27T19:40:37.849Z,17.10
2018-12-27T19:43:08.047Z,17.10
2018-12-27T19:45:38.007Z,17.10
2018-12-27T19:48:08.048Z,17.10
2018-12-27T19:50:38.094Z,17.10
2018-12-27T19:53:08.100Z,17.10
2018-12-27T19:55:38.170Z,17.10
2018-12-27T19:58:08.236Z,17.10
2018-12-27T20:00:38.200Z,17.10
2018-12-27T20:03:08.351Z,17.10
2018-12-27T20:05:38.334Z,17.10
2018-12-27T20:08:08.291Z,17.10
2018-12-27T20:10:41.192Z,17.10
2018-12-27T20:13:11.204Z,17.10
2018-12-27T20:15:41.258Z,17.10
2018-12-27T20:18:11.371Z,17.10
2018-12-27T20:20:41.387Z,17.10
2018-12-27T20:23:11.376Z,17.10
2018-12-27T20:25:41.446Z,17.10
2018-12-27T20:28:11.431Z,17.10
2018-12-27T20:30:41.458Z,17.10
2018-12-27T20:33:11.629Z,17.10
2018-12-27T20:35:41.700Z,17.10
2018-12-27T20:38:11.700Z,17.10
2018-12-27T20:40:41.852Z,17.10
2018-12-27T20:43:12.091Z,17.10
2018-12-27T20:45:42.193Z,17.10
2018-12-27T20:48:12.247Z,17.10
2018-12-27T20:50:42.588Z,17.10
2018-12-27T20:53:12.548Z,17.10
2018-12-27T20:55:42.543Z,17.10
2018-12-27T20:58:12.520Z,17.10
2018-12-27T21:00:42.593Z,17.10
2018-12-27T21:03:12.622Z,17.10
2018-12-27T21:05:42.607Z,17.10
2018-12-27T21:08:14.220Z,17.10
2018-12-27T21:10:44.329Z,17.10
2018-12-27T21:13:14.378Z,17.10
2018-12-27T21:15:44.545Z,17.10
2018-12-27T21:18:14.495Z,17.10
2018-12-27T21:20:44.540Z,17.10
2018-12-27T21:23:14.587Z,17.10
2018-12-27T21:25:44.558Z,17.10
2018-12-27T21:28:14.696Z,17.10
2018-12-27T21:30:44.787Z,17.10
2018-12-27T21:33:14.835Z,17.10
2018-12-27T21:35:45.009Z,17.10
2018-12-27T21:38:21.147Z,17.10
2018-12-27T21:40:46.797Z,17.10
2018-12-27T21:43:16.803Z,17.10
2018-12-27T21:45:46.852Z,17.10
2018-12-27T21:48:16.935Z,17.10
2018-12-27T21:50:47.074Z,17.10
2018-12-27T21:53:17.036Z,17.10
2018-12-27T21:55:47.088Z,17.10
2018-12-27T21:58:17.094Z,17.10
2018-12-27T22:00:47.047Z,17.10
2018-12-27T22:03:17.116Z,17.10
2018-12-27T22:05:47.159Z,17.10
2018-12-27T22:08:17.244Z,17.10
2018-12-27T22:10:47.432Z,17.10
2018-12-27T22:13:17.495Z,17.10
2018-12-27T22:15:47.663Z,17.10
2018-12-27T22:18:17.658Z,17.10
2018-12-27T22:20:47.616Z,17.10
2018-12-27T22:23:17.743Z,17.10
2018-12-27T22:25:47.735Z,17.10
2018-12-27T22:28:17.687Z,17.10
2018-12-27T22:30:50.822Z,17.00
2018-12-27T22:33:20.925Z,17.10
2018-12-27T22:35:50.951Z,17.10
2018-12-27T22:38:20.982Z,17.10
2018-12-27T22:40:51.007Z,17.10
2018-12-27T22:43:21.068Z,17.10
2018-12-27T22:45:51.141Z,17.00
2018-12-27T22:48:21.304Z,17.10
2018-12-27T22:50:51.360Z,17.10
2018-12-27T22:53:21.336Z,17.10
2018-12-27T22:55:57.941Z,17.10
2018-12-27T22:58:28.019Z,17.10
2018-12-27T23:00:58.720Z,17.10
2018-12-27T23:03:28.697Z,17.10
2018-12-27T23:05:58.858Z,17.10
2018-12-27T23:08:28.913Z,17.10
2018-12-27T23:10:58.895Z,17.10
2018-12-27T23:13:28.898Z,17.10
2018-12-27T23:15:58.882Z,17.10
2018-12-27T23:18:28.841Z,17.10
2018-12-27T23:20:58.819Z,17.10
2018-12-27T23:23:28.911Z,17.10
2018-12-27T23:25:59.018Z,17.10
2018-12-27T23:28:29.080Z,17.10
2018-12-27T23:30:59.157Z,17.10
